sim
Sign-in with your pilot id or email,
or register
Callsign
Passwort

Schedule Details

Flight Number: DLH2264 (1)
Departure: Munich Airport (EDDM) at 15:50
Arrival: Marseille Provence Airport (LFML) at 17:30
Route: Lufthansa Passenger Schedule. Enter filed route here before submitting Pirep.

Weather Information
Getting current METAR information for EDDM 271020Z 22007KT 190V260 9999 FEW040 13/03 Q1006 NOSIG
Getting current METAR information for LFML 271030Z AUTO 33020KT CAVOK 16/05 Q1008 BECMG 32020G30KT

Schedule Frequency

Route Map